Time;durP1;ratioP1;P1;durP2;ratioP2;P2;SDS_P1;SDS_P2;PMS_P1;PMS_P2;Temp;Humidity;BMP_temperature;BMP_pressure;BME280_temperature;BME280_humidity;BME280_pressure;Samples;Min_cycle;Max_cycle;Signal;HPM_P1;HPM_P2
2023/07/29 00:00:19;;;;;;;1.60;1.50;;;23.30;75.60;22.80;96174.00;;;;5078061;28;20196;-83
2023/07/29 00:02:46;;;;;;;1.40;1.30;;;23.30;75.50;22.80;96177.00;;;;5083444;28;20193;-83
2023/07/29 00:05:16;;;;;;;1.43;1.33;;;23.30;75.50;22.80;96178.00;;;;5078983;28;20196;-83
2023/07/29 00:07:46;;;;;;;1.67;1.57;;;23.30;75.50;22.70;96177.00;;;;5078109;28;20241;-83
2023/07/29 00:10:14;;;;;;;1.37;1.27;;;23.30;75.50;22.70;96170.00;;;;5075538;28;20685;-83
2023/07/29 00:12:41;;;;;;;1.60;1.50;;;23.30;75.50;22.70;96174.00;;;;5085972;28;20198;-82
2023/07/29 00:15:09;;;;;;;2.07;1.43;;;23.30;75.50;22.70;96170.00;;;;5078252;28;20195;-83
2023/07/29 00:17:37;;;;;;;1.50;1.40;;;23.20;75.50;22.70;96176.00;;;;5083562;28;20249;-82
2023/07/29 00:20:05;;;;;;;1.60;1.50;;;23.20;75.60;22.70;96176.00;;;;5076723;28;20201;-82
2023/07/29 00:22:34;;;;;;;2.83;1.53;;;23.20;75.50;22.60;96170.00;;;;5081222;28;20650;-83
2023/07/29 00:25:01;;;;;;;1.40;1.30;;;23.20;75.60;22.60;96167.00;;;;5079377;28;20257;-83
2023/07/29 00:27:29;;;;;;;2.03;1.70;;;23.20;75.60;22.60;96170.00;;;;5067670;28;20299;-82
2023/07/29 00:29:56;;;;;;;1.53;1.43;;;23.20;75.70;22.60;96168.00;;;;5080428;28;20200;-81
2023/07/29 00:32:23;;;;;;;1.43;1.30;;;23.20;75.80;22.60;96170.00;;;;5081358;28;20288;-83
2023/07/29 00:34:51;;;;;;;2.07;1.37;;;23.20;75.80;22.60;96175.00;;;;5082502;28;20567;-82
2023/07/29 00:37:18;;;;;;;1.50;1.40;;;23.10;75.70;22.60;96175.00;;;;5065509;28;20226;-82
2023/07/29 00:39:46;;;;;;;1.20;1.17;;;23.10;75.70;22.60;96167.00;;;;5081298;28;20194;-83
2023/07/29 00:42:14;;;;;;;1.77;1.50;;;23.10;75.70;22.60;96169.00;;;;5085198;28;20198;-82
2023/07/29 00:44:41;;;;;;;1.47;1.10;;;23.10;75.70;22.60;96172.00;;;;5082814;28;20200;-82
2023/07/29 00:47:09;;;;;;;1.50;1.40;;;23.10;75.70;22.50;96175.00;;;;5082502;28;20236;-83
2023/07/29 00:49:36;;;;;;;1.43;1.33;;;23.10;75.70;22.50;96177.00;;;;5087736;28;20735;-82
2023/07/29 00:52:04;;;;;;;1.70;1.60;;;23.10;75.60;22.50;96179.00;;;;5086022;28;20630;-82
2023/07/29 00:54:31;;;;;;;1.80;1.70;;;23.10;75.50;22.50;96176.00;;;;5080285;28;20202;-81
2023/07/29 00:57:00;;;;;;;1.93;1.40;;;23.10;75.50;22.50;96173.00;;;;5092897;28;20304;-82
2023/07/29 00:59:30;;;;;;;1.97;1.70;;;23.10;75.40;22.40;96173.00;;;;5087708;28;20239;-82
2023/07/29 01:01:57;;;;;;;1.90;1.40;;;23.00;75.10;22.40;96158.00;;;;5089336;28;20223;-83
2023/07/29 01:04:25;;;;;;;1.37;1.27;;;23.00;74.90;22.30;96159.00;;;;5081588;28;20663;-81
2023/07/29 01:07:04;;;;;;;1.10;1.10;;;23.00;74.80;22.30;96156.00;;;;5088009;28;20703;-82
2023/07/29 01:09:41;;;;;;;1.93;1.47;;;23.00;74.70;22.30;96152.00;;;;5075666;28;20260;-84
2023/07/29 01:12:22;;;;;;;1.50;1.40;;;22.90;74.70;22.20;96152.00;;;;5087121;28;20199;-83
2023/07/29 01:15:03;;;;;;;2.43;2.17;;;22.90;74.60;22.20;96152.00;;;;5091558;28;20208;-83
2023/07/29 01:17:41;;;;;;;1.80;1.70;;;22.80;74.40;22.10;96157.00;;;;5080163;28;20236;-83
2023/07/29 01:20:12;;;;;;;1.40;1.30;;;22.80;74.30;22.10;96144.00;;;;5071525;28;20191;-81
2023/07/29 01:22:40;;;;;;;2.60;1.60;;;22.80;74.30;22.00;96144.00;;;;5081046;28;20287;-81
2023/07/29 01:25:09;;;;;;;1.60;1.50;;;22.70;74.40;22.00;96151.00;;;;5081283;28;20263;-83
2023/07/29 01:27:37;;;;;;;1.30;1.20;;;22.70;74.40;22.00;96150.00;;;;5092825;28;20271;-82
2023/07/29 01:30:06;;;;;;;1.53;1.43;;;22.60;74.20;21.90;96149.00;;;;5096871;28;20290;-81
2023/07/29 01:32:42;;;;;;;1.30;1.20;;;22.60;74.20;21.90;96142.00;;;;5080762;28;20200;-80
2023/07/29 01:35:24;;;;;;;1.40;1.30;;;22.60;74.30;21.80;96139.00;;;;5078552;28;20192;-83
2023/07/29 01:37:58;;;;;;;1.60;1.23;;;22.50;74.30;21.80;96142.00;;;;5091333;28;20301;-81
2023/07/29 01:40:29;;;;;;;2.53;1.60;;;22.50;74.10;21.70;96151.00;;;;5089568;28;20208;-82
2023/07/29 01:42:57;;;;;;;1.70;1.53;;;22.50;73.90;21.70;96148.00;;;;5086497;28;20283;-81
2023/07/29 01:45:25;;;;;;;1.90;1.40;;;22.40;73.90;21.70;96143.00;;;;5085484;28;20216;-82
2023/07/29 01:47:53;;;;;;;1.83;1.40;;;22.40;73.90;21.60;96142.00;;;;5086932;28;20690;-83
2023/07/29 01:50:20;;;;;;;1.90;1.50;;;22.30;73.80;21.60;96133.00;;;;5091962;28;20779;-82
2023/07/29 01:52:47;;;;;;;1.80;1.50;;;22.30;73.80;21.50;96131.00;;;;5088206;28;20720;-83
2023/07/29 01:55:15;;;;;;;1.63;1.33;;;22.30;73.80;21.50;96128.00;;;;5093989;28;20220;-82
2023/07/29 01:57:44;;;;;;;1.63;1.53;;;22.20;73.80;21.40;96136.00;;;;5099109;28;20314;-83
2023/07/29 02:00:15;;;;;;;1.40;1.30;;;22.20;74.70;21.40;96137.00;;;;5088707;28;20246;-82
2023/07/29 02:02:42;;;;;;;1.33;1.23;;;22.10;74.00;21.40;96135.00;;;;5076255;28;20783;-83
2023/07/29 02:05:09;;;;;;;2.50;1.57;;;22.10;74.10;21.30;96135.00;;;;5073857;28;20188;-82
2023/07/29 02:07:36;;;;;;;1.50;1.40;;;22.00;74.20;21.30;96128.00;;;;5059445;28;20696;-83
2023/07/29 02:10:05;;;;;;;1.73;1.63;;;22.00;74.30;21.30;96128.00;;;;5078930;28;20209;-82
2023/07/29 02:12:32;;;;;;;1.40;1.30;;;22.00;74.30;21.20;96134.00;;;;5077244;28;20200;-83
2023/07/29 02:15:01;;;;;;;1.40;1.30;;;21.90;74.20;21.20;96135.00;;;;5077084;28;20201;-82
2023/07/29 02:17:28;;;;;;;1.60;1.50;;;21.90;74.20;21.20;96130.00;;;;5076036;28;20295;-83
2023/07/29 02:19:56;;;;;;;1.70;1.53;;;21.90;74.30;21.10;96125.00;;;;5069352;28;20211;-82
2023/07/29 02:22:23;;;;;;;3.40;1.70;;;21.80;74.40;21.10;96120.00;;;;5087026;28;20223;-83
2023/07/29 02:24:50;;;;;;;2.40;1.90;;;21.80;74.60;21.10;96125.00;;;;5083848;28;20191;-82
2023/07/29 02:27:17;;;;;;;1.30;1.30;;;21.80;74.70;21.00;96126.00;;;;5078591;28;20242;-82
2023/07/29 02:29:44;;;;;;;1.60;1.50;;;21.80;74.70;21.00;96125.00;;;;5063518;28;20231;-83
2023/07/29 02:32:13;;;;;;;2.90;1.67;;;21.70;74.70;21.00;96114.00;;;;5084506;28;20196;-81
2023/07/29 02:34:40;;;;;;;1.63;1.53;;;21.70;74.80;20.90;96120.00;;;;5093062;28;20199;-82
2023/07/29 02:37:09;;;;;;;1.70;1.60;;;21.60;74.70;20.90;96116.00;;;;5087034;28;20715;-82
2023/07/29 02:39:36;;;;;;;1.50;1.40;;;21.60;74.80;20.90;96114.00;;;;5079238;28;20203;-82
2023/07/29 02:42:05;;;;;;;2.27;1.40;;;21.60;74.80;20.90;96114.00;;;;5082772;28;20274;-82
2023/07/29 02:44:32;;;;;;;2.37;1.67;;;21.60;74.70;20.80;96117.00;;;;5090004;28;20222;-84
2023/07/29 02:46:59;;;;;;;1.70;1.40;;;21.60;74.70;20.80;96121.00;;;;5088570;28;20280;-82
2023/07/29 02:49:28;;;;;;;2.23;1.60;;;21.50;74.80;20.80;96116.00;;;;5090672;28;20228;-83
2023/07/29 02:51:55;;;;;;;1.50;1.40;;;21.50;74.80;20.80;96117.00;;;;5085491;28;20242;-82
2023/07/29 02:54:22;;;;;;;1.57;1.47;;;21.50;74.90;20.80;96118.00;;;;5097169;28;20211;-83
2023/07/29 02:56:52;;;;;;;1.73;1.63;;;21.50;74.90;20.70;96117.00;;;;5086358;28;20270;-81
2023/07/29 02:59:19;;;;;;;1.30;1.20;;;21.40;74.90;20.70;96116.00;;;;5076833;28;20192;-83
2023/07/29 03:01:47;;;;;;;1.67;1.57;;;21.40;74.90;20.70;96123.00;;;;5084006;28;20257;-83
2023/07/29 03:04:14;;;;;;;1.60;1.50;;;21.40;74.90;20.70;96119.00;;;;5067748;28;20204;-83
2023/07/29 03:06:43;;;;;;;1.63;1.53;;;21.40;75.10;20.70;96123.00;;;;5078498;28;20227;-82
2023/07/29 03:09:10;;;;;;;1.93;1.83;;;21.40;75.10;20.60;96127.00;;;;5098302;28;20226;-82
2023/07/29 03:11:37;;;;;;;1.53;1.37;;;21.40;75.10;20.60;96124.00;;;;5086431;28;20199;-83
2023/07/29 03:14:05;;;;;;;1.67;1.40;;;21.30;75.10;20.60;96119.00;;;;5075057;28;20641;-82
2023/07/29 03:16:32;;;;;;;2.23;1.57;;;21.30;75.20;20.60;96123.00;;;;5076243;28;20275;-81
2023/07/29 03:19:00;;;;;;;2.27;1.70;;;21.30;75.30;20.60;96119.00;;;;5085978;28;20196;-82
2023/07/29 03:21:27;;;;;;;1.60;1.50;;;21.30;75.30;20.60;96112.00;;;;5079452;28;20704;-83
2023/07/29 03:23:56;;;;;;;1.90;1.70;;;21.30;75.30;20.60;96108.00;;;;5077269;28;20287;-83
2023/07/29 03:26:23;;;;;;;1.90;1.80;;;21.30;75.50;20.60;96096.00;;;;5077004;28;20216;-82
2023/07/29 03:28:50;;;;;;;2.30;1.77;;;21.30;75.50;20.60;96099.00;;;;5086126;28;20220;-82
2023/07/29 03:31:17;;;;;;;1.70;1.53;;;21.30;75.60;20.60;96110.00;;;;5079476;28;20196;-82
2023/07/29 03:33:45;;;;;;;1.50;1.40;;;21.30;75.60;20.60;96100.00;;;;5081715;28;20672;-83
2023/07/29 03:36:12;;;;;;;2.10;2.00;;;21.30;75.50;20.50;96099.00;;;;5082856;28;20737;-82
2023/07/29 03:38:40;;;;;;;1.63;1.53;;;21.20;75.50;20.50;96102.00;;;;5090809;28;20289;-83
2023/07/29 03:41:10;;;;;;;1.80;1.70;;;21.20;75.50;20.50;96106.00;;;;5078625;28;20204;-82
2023/07/29 03:43:37;;;;;;;1.57;1.40;;;21.20;75.50;20.50;96097.00;;;;5097281;28;20257;-82
2023/07/29 03:46:05;;;;;;;2.33;1.60;;;21.20;76.20;20.50;96090.00;;;;5087759;28;20215;-82
2023/07/29 03:48:32;;;;;;;2.23;1.70;;;21.20;75.40;20.50;96090.00;;;;5083293;28;20216;-82
2023/07/29 03:50:59;;;;;;;1.80;1.50;;;21.20;75.40;20.50;96097.00;;;;5086178;28;20211;-81
2023/07/29 03:53:26;;;;;;;1.83;1.50;;;21.20;75.50;20.50;96102.00;;;;5082890;28;20583;-83
2023/07/29 03:55:54;;;;;;;1.77;1.67;;;21.20;75.40;20.50;96107.00;;;;5079418;28;20287;-83
2023/07/29 03:58:22;;;;;;;1.47;1.37;;;21.20;75.50;20.50;96104.00;;;;5077212;28;20226;-82
2023/07/29 04:00:49;;;;;;;1.70;1.60;;;21.20;75.60;20.50;96106.00;;;;5073435;28;20196;-82
2023/07/29 04:03:17;;;;;;;1.70;1.60;;;21.20;75.70;20.50;96109.00;;;;5074397;28;20195;-82
2023/07/29 04:05:44;;;;;;;1.67;1.57;;;21.20;75.80;20.50;96108.00;;;;5081102;28;20203;-82
2023/07/29 04:08:11;;;;;;;1.70;1.60;;;21.20;76.10;20.50;96103.00;;;;5076373;28;20786;-82
2023/07/29 04:10:39;;;;;;;1.80;1.63;;;21.20;76.00;20.50;96100.00;;;;5087287;28;20694;-82
2023/07/29 04:13:06;;;;;;;1.70;1.60;;;21.20;76.10;20.50;96102.00;;;;5085814;28;20196;-83
2023/07/29 04:15:34;;;;;;;1.70;1.60;;;21.20;76.20;20.50;96100.00;;;;5079892;28;20284;-81
2023/07/29 04:18:01;;;;;;;3.17;1.90;;;21.20;76.40;20.50;96115.00;;;;5086688;28;20195;-81
2023/07/29 04:20:28;;;;;;;1.60;1.50;;;21.20;76.60;20.50;96115.00;;;;5078424;28;20732;-82
2023/07/29 04:22:56;;;;;;;1.87;1.77;;;21.20;76.70;20.60;96115.00;;;;5074961;28;20569;-83
2023/07/29 04:25:23;;;;;;;2.27;2.07;;;21.20;77.60;20.60;96105.00;;;;5079933;28;20199;-81
2023/07/29 04:27:50;;;;;;;1.87;1.77;;;21.30;77.10;20.60;96104.00;;;;5084666;28;20219;-82
2023/07/29 04:30:17;;;;;;;2.20;1.97;;;21.20;77.10;20.70;96108.00;;;;5078947;28;20739;-82
2023/07/29 04:32:48;;;;;;;2.03;1.87;;;21.30;77.30;20.70;96092.00;;;;5076634;28;20283;-81
2023/07/29 04:35:15;;;;;;;2.00;1.80;;;21.30;78.10;20.70;96096.00;;;;5078599;28;20192;-82
2023/07/29 04:37:42;;;;;;;1.43;1.33;;;21.30;77.40;20.80;96090.00;;;;5076750;28;20730;-82
2023/07/29 04:40:10;;;;;;;1.73;1.40;;;21.30;77.50;20.80;96077.00;;;;5080074;28;20660;-82
2023/07/29 04:42:38;;;;;;;1.53;1.43;;;21.40;77.50;20.80;96081.00;;;;5078353;28;20214;-81
2023/07/29 04:45:06;;;;;;;1.33;1.23;;;21.40;77.40;20.80;96082.00;;;;5075410;28;20279;-82
2023/07/29 04:47:34;;;;;;;1.57;1.47;;;21.40;77.40;20.80;96077.00;;;;5078441;28;20688;-82
2023/07/29 04:50:02;;;;;;;1.50;1.30;;;21.40;77.20;20.80;96069.00;;;;5076325;28;20215;-81
2023/07/29 04:52:29;;;;;;;2.30;1.73;;;21.50;77.80;20.80;96066.00;;;;5075806;28;20704;-81
2023/07/29 04:54:57;;;;;;;2.00;1.80;;;21.50;76.90;20.80;96072.00;;;;5080370;28;20187;-81
2023/07/29 04:57:24;;;;;;;2.77;1.53;;;21.50;76.90;20.90;96080.00;;;;5072655;28;20562;-82
2023/07/29 04:59:51;;;;;;;1.50;1.40;;;21.50;76.80;20.90;96083.00;;;;5076551;28;20316;-82
2023/07/29 05:02:18;;;;;;;1.60;1.50;;;21.50;76.70;20.90;96078.00;;;;5084209;28;20192;-82
2023/07/29 05:04:46;;;;;;;1.77;1.40;;;21.50;76.70;20.90;96078.00;;;;5070824;28;20203;-80
2023/07/29 05:07:15;;;;;;;1.33;1.23;;;21.60;76.70;20.90;96070.00;;;;5094463;28;20737;-81
2023/07/29 05:09:42;;;;;;;1.87;1.33;;;21.60;76.70;20.90;96069.00;;;;5074057;28;20836;-80
2023/07/29 05:12:10;;;;;;;1.77;1.30;;;21.60;76.60;20.90;96074.00;;;;5067491;28;20203;-82
2023/07/29 05:14:37;;;;;;;1.80;1.37;;;21.60;76.50;20.90;96062.00;;;;5069012;28;20196;-82
2023/07/29 05:17:04;;;;;;;1.60;1.50;;;21.60;76.50;20.90;96059.00;;;;5077427;28;20212;-82
2023/07/29 05:19:31;;;;;;;1.40;1.30;;;21.60;76.40;20.90;96063.00;;;;5082831;28;20188;-82
2023/07/29 05:21:59;;;;;;;2.03;1.40;;;21.60;76.40;21.00;96058.00;;;;5085138;28;20203;-82
2023/07/29 05:24:28;;;;;;;2.20;1.90;;;21.60;76.50;21.00;96067.00;;;;5093979;28;20573;-81
2023/07/29 05:26:55;;;;;;;3.47;1.70;;;21.60;76.60;21.00;96082.00;;;;5085602;28;20215;-82
2023/07/29 05:29:22;;;;;;;1.70;1.60;;;21.70;76.70;21.00;96081.00;;;;5094656;28;20246;-82
2023/07/29 05:31:49;;;;;;;1.20;1.13;;;21.70;76.80;21.10;96078.00;;;;5090719;28;20210;-82
2023/07/29 05:34:16;;;;;;;1.47;1.37;;;21.70;77.00;21.10;96078.00;;;;5087053;28;20852;-82
2023/07/29 05:36:44;;;;;;;1.23;1.13;;;21.70;77.20;21.10;96071.00;;;;5094051;28;20582;-81
2023/07/29 05:39:12;;;;;;;1.40;1.30;;;21.80;77.40;21.20;96068.00;;;;5089549;28;20217;-81
2023/07/29 05:41:40;;;;;;;1.30;1.20;;;21.80;77.40;21.20;96079.00;;;;5091461;28;20634;-81
2023/07/29 05:44:08;;;;;;;2.23;1.10;;;21.80;77.50;21.30;96075.00;;;;5076230;28;20198;-81
2023/07/29 05:46:35;;;;;;;2.57;1.20;;;21.80;77.60;21.30;96078.00;;;;5088450;28;20218;-80
2023/07/29 05:49:02;;;;;;;1.20;1.10;;;21.90;77.80;21.40;96078.00;;;;5096559;28;20213;-80
2023/07/29 05:51:29;;;;;;;1.50;1.40;;;21.90;77.90;21.50;96079.00;;;;5090951;28;20210;-81
2023/07/29 05:53:57;;;;;;;1.33;1.20;;;22.00;77.90;21.50;96081.00;;;;5080894;28;20688;-80
2023/07/29 05:56:24;;;;;;;1.10;1.00;;;22.00;77.80;21.60;96074.00;;;;5068015;28;20247;-81
2023/07/29 05:58:53;;;;;;;0.90;0.90;;;22.10;77.70;21.60;96078.00;;;;5073229;28;20192;-81
2023/07/29 06:01:21;;;;;;;2.67;1.47;;;22.20;77.90;21.70;96083.00;;;;5087385;28;20195;-81
2023/07/29 06:03:48;;;;;;;1.03;0.93;;;22.20;78.60;21.80;96080.00;;;;5096270;28;20187;-80
2023/07/29 06:06:16;;;;;;;2.30;1.13;;;22.30;78.00;21.90;96077.00;;;;5083510;28;20226;-80
2023/07/29 06:08:43;;;;;;;1.20;1.10;;;22.30;77.90;21.90;96086.00;;;;5082753;28;20200;-80
2023/07/29 06:11:11;;;;;;;1.63;1.13;;;22.40;78.00;22.00;96082.00;;;;5082053;28;20330;-82
2023/07/29 06:13:38;;;;;;;1.40;1.30;;;22.50;78.10;22.10;96084.00;;;;5094450;28;20292;-80
2023/07/29 06:16:06;;;;;;;1.30;1.20;;;22.50;77.90;22.10;96073.00;;;;5067068;28;20245;-80
2023/07/29 06:18:34;;;;;;;1.33;1.23;;;22.60;78.00;22.20;96078.00;;;;5089180;28;20217;-82
2023/07/29 06:21:01;;;;;;;1.40;1.30;;;22.60;78.00;22.30;96074.00;;;;5073334;28;20207;-80
2023/07/29 06:23:29;;;;;;;1.17;1.07;;;22.70;78.20;22.30;96079.00;;;;5076083;28;20197;-81
2023/07/29 06:25:56;;;;;;;1.53;1.43;;;22.80;78.50;22.40;96084.00;;;;5088031;28;20223;-81
2023/07/29 06:28:23;;;;;;;1.23;0.93;;;22.80;78.10;22.40;96093.00;;;;5089511;28;20246;-81
2023/07/29 06:30:50;;;;;;;1.60;1.50;;;22.90;77.90;22.50;96091.00;;;;5083931;28;20228;-81
2023/07/29 06:33:19;;;;;;;2.40;1.30;;;23.00;77.50;22.50;96088.00;;;;5080942;28;20298;-82
2023/07/29 06:35:47;;;;;;;1.37;1.10;;;23.10;76.70;22.60;96083.00;;;;5089257;28;20287;-83
2023/07/29 06:38:14;;;;;;;1.43;1.20;;;23.10;76.30;22.60;96082.00;;;;5084782;28;20198;-81
2023/07/29 06:40:42;;;;;;;1.10;1.00;;;23.10;76.10;22.60;96091.00;;;;5083718;28;20268;-81
2023/07/29 06:43:09;;;;;;;1.00;1.00;;;23.10;76.30;22.70;96094.00;;;;5078998;28;20562;-81
2023/07/29 06:45:36;;;;;;;0.97;0.97;;;23.20;76.60;22.80;96087.00;;;;5069402;28;20192;-78
2023/07/29 06:48:03;;;;;;;1.27;1.17;;;23.20;76.80;22.80;96089.00;;;;5076383;28;20568;-82
2023/07/29 06:50:32;;;;;;;1.30;1.20;;;23.30;76.70;22.90;96083.00;;;;5077038;28;20223;-81
2023/07/29 06:52:59;;;;;;;1.07;0.97;;;23.30;76.60;23.00;96076.00;;;;5080079;28;20244;-81
2023/07/29 06:55:28;;;;;;;0.90;0.90;;;23.40;76.40;23.00;96085.00;;;;5067516;28;20674;-81
2023/07/29 06:57:55;;;;;;;1.40;1.30;;;23.40;76.40;23.10;96096.00;;;;5088539;28;20203;-80
2023/07/29 07:00:22;;;;;;;1.40;1.30;;;23.50;76.50;23.20;96100.00;;;;5085791;28;20200;-81
2023/07/29 07:02:49;;;;;;;1.37;1.27;;;23.60;76.60;23.20;96115.00;;;;5092650;28;20696;-80
2023/07/29 07:05:17;;;;;;;1.53;1.00;;;23.60;76.60;23.30;96122.00;;;;5075012;28;20199;-80
2023/07/29 07:07:45;;;;;;;1.10;1.00;;;23.70;76.40;23.30;96145.00;;;;5077620;28;20216;-80
2023/07/29 07:10:13;;;;;;;1.73;1.20;;;23.80;76.40;23.40;96167.00;;;;5053646;28;20246;-80
2023/07/29 07:12:40;;;;;;;1.27;1.17;;;23.80;76.40;23.40;96175.00;;;;5076096;28;20570;-80
2023/07/29 07:15:09;;;;;;;1.13;1.13;;;23.90;76.40;23.40;96180.00;;;;5050676;28;20199;-79
2023/07/29 07:17:36;;;;;;;2.47;1.30;;;23.90;76.30;23.50;96178.00;;;;5083006;28;20298;-81
2023/07/29 07:20:04;;;;;;;2.73;1.37;;;23.90;76.40;23.40;96163.00;;;;5077387;28;20599;-81
2023/07/29 07:22:32;;;;;;;1.40;1.20;;;23.90;76.50;23.40;96155.00;;;;5081896;28;20279;-82
2023/07/29 07:25:00;;;;;;;1.30;1.00;;;23.90;76.60;23.30;96146.00;;;;5084256;28;20658;-82
2023/07/29 07:27:27;;;;;;;1.07;1.07;;;23.90;76.90;23.30;96141.00;;;;5082451;28;20294;-81
2023/07/29 07:29:54;;;;;;;0.97;0.97;;;23.90;76.90;23.20;96146.00;;;;5086087;28;20226;-81
2023/07/29 07:32:22;;;;;;;1.30;1.20;;;23.80;76.90;23.20;96155.00;;;;5076483;28;20222;-80
2023/07/29 07:34:49;;;;;;;1.27;1.17;;;23.80;77.20;23.10;96149.00;;;;5078433;28;20639;-81
2023/07/29 07:37:16;;;;;;;1.30;1.03;;;23.80;77.30;23.10;96136.00;;;;5072048;28;20231;-82
2023/07/29 07:39:44;;;;;;;0.97;0.97;;;23.70;77.40;23.10;96120.00;;;;5083002;28;20204;-82
2023/07/29 07:42:12;;;;;;;1.60;1.10;;;23.70;77.60;23.10;96126.00;;;;5074676;28;20251;-82
2023/07/29 07:44:39;;;;;;;1.13;1.07;;;23.70;77.70;23.10;96124.00;;;;5072313;28;20196;-81
2023/07/29 07:47:06;;;;;;;1.87;1.30;;;23.70;77.90;23.10;96110.00;;;;5073213;28;20226;-80
2023/07/29 07:49:34;;;;;;;1.10;1.00;;;23.60;77.90;23.10;96096.00;;;;5070214;28;20194;-80
2023/07/29 07:52:01;;;;;;;1.40;1.30;;;23.60;77.50;23.10;96091.00;;;;5078059;28;20296;-79
2023/07/29 07:54:28;;;;;;;1.30;1.20;;;23.60;77.50;23.10;96077.00;;;;5064707;28;20210;-81
2023/07/29 07:56:55;;;;;;;1.53;1.30;;;23.60;78.10;23.10;96078.00;;;;5071213;28;20323;-80
2023/07/29 07:59:24;;;;;;;2.43;1.30;;;23.60;78.30;23.10;96085.00;;;;5074016;28;20200;-79
2023/07/29 08:01:52;;;;;;;1.53;1.30;;;23.60;78.30;23.10;96094.00;;;;5078070;28;20289;-83
2023/07/29 08:04:19;;;;;;;1.90;1.67;;;23.60;78.40;23.10;96099.00;;;;5078473;28;20710;-82
2023/07/29 08:06:46;;;;;;;1.60;1.43;;;23.60;78.70;23.20;96107.00;;;;5072124;28;20213;-82
2023/07/29 08:09:13;;;;;;;1.60;1.50;;;23.70;79.00;23.20;96104.00;;;;5080156;28;20198;-81
2023/07/29 08:11:40;;;;;;;1.50;1.40;;;23.70;78.80;23.30;96105.00;;;;5083140;28;20247;-81
2023/07/29 08:14:08;;;;;;;1.40;1.30;;;23.70;78.50;23.30;96107.00;;;;5076649;28;20258;-80
2023/07/29 08:16:36;;;;;;;1.23;1.17;;;23.70;79.40;23.30;96098.00;;;;5076618;28;20218;-80
2023/07/29 08:19:04;;;;;;;2.40;1.40;;;23.80;78.90;23.40;96089.00;;;;5066281;28;20196;-80
2023/07/29 08:21:31;;;;;;;2.03;1.53;;;23.80;78.40;23.40;96085.00;;;;5072343;28;20802;-80
2023/07/29 08:23:59;;;;;;;1.67;1.33;;;23.80;78.10;23.40;96082.00;;;;5074156;28;20195;-81
2023/07/29 08:26:26;;;;;;;1.83;1.43;;;23.90;78.00;23.40;96091.00;;;;5072382;28;20732;-80
2023/07/29 08:28:53;;;;;;;1.60;1.50;;;23.90;78.40;23.50;96090.00;;;;5072144;28;20215;-79
2023/07/29 08:31:20;;;;;;;1.40;1.30;;;23.90;78.50;23.50;96094.00;;;;5075810;28;20215;-80
2023/07/29 08:33:49;;;;;;;2.90;1.50;;;23.90;78.80;23.60;96095.00;;;;5072583;28;20199;-81
2023/07/29 08:36:16;;;;;;;1.33;1.23;;;24.00;79.10;23.60;96094.00;;;;5068038;28;20242;-80
2023/07/29 08:38:44;;;;;;;1.43;0.97;;;24.00;79.30;23.70;96094.00;;;;5080621;28;20234;-80
2023/07/29 08:41:15;;;;;;;1.57;1.47;;;24.10;79.50;23.70;96098.00;;;;5074316;28;20212;-80
2023/07/29 08:43:53;;;;;;;1.90;1.70;;;24.10;79.40;23.80;96107.00;;;;5080942;28;20196;-80
2023/07/29 08:46:21;;;;;;;1.27;1.13;;;24.20;78.70;23.80;96111.00;;;;5077540;28;20215;-80
2023/07/29 08:48:52;;;;;;;1.83;1.63;;;24.20;78.20;23.90;96117.00;;;;5082330;28;20221;-80
2023/07/29 08:51:20;;;;;;;1.43;1.20;;;24.30;78.30;23.90;96113.00;;;;5064732;28;20840;-80
2023/07/29 08:53:49;;;;;;;1.40;1.30;;;24.30;78.00;23.90;96109.00;;;;5071479;28;20290;-80
2023/07/29 08:56:17;;;;;;;2.13;1.50;;;24.30;78.10;24.00;96111.00;;;;5071833;28;20298;-80
2023/07/29 08:58:44;;;;;;;1.60;1.47;;;24.40;78.20;24.00;96109.00;;;;5075271;28;20206;-81
2023/07/29 09:01:12;;;;;;;1.20;1.10;;;24.40;78.40;24.00;96100.00;;;;5075374;28;20744;-80
2023/07/29 09:03:40;;;;;;;4.50;2.03;;;24.40;79.00;24.10;96117.00;;;;5078645;28;20200;-81
2023/07/29 09:06:09;;;;;;;1.00;1.00;;;24.50;78.60;24.10;96114.00;;;;5081268;28;20310;-81
2023/07/29 09:08:37;;;;;;;1.60;1.50;;;24.50;78.70;24.20;96111.00;;;;5076364;28;20225;-81
2023/07/29 09:11:05;;;;;;;1.47;1.37;;;24.60;78.70;24.20;96115.00;;;;5080651;28;20751;-80
2023/07/29 09:13:32;;;;;;;1.90;1.43;;;24.60;79.20;24.30;96116.00;;;;5075918;28;20578;-81
2023/07/29 09:16:00;;;;;;;1.20;1.10;;;24.70;78.40;24.40;96103.00;;;;5084170;28;20219;-80
2023/07/29 09:18:29;;;;;;;1.50;1.40;;;24.70;78.80;24.50;96110.00;;;;5074340;28;20199;-81
2023/07/29 09:21:01;;;;;;;1.30;1.20;;;24.80;79.10;24.60;96113.00;;;;5076849;28;20211;-80
2023/07/29 09:23:40;;;;;;;1.57;1.47;;;24.90;80.20;24.70;96112.00;;;;5068068;28;20188;-81
2023/07/29 09:26:07;;;;;;;1.90;1.30;;;25.00;79.30;24.80;96117.00;;;;5071304;28;20215;-82
2023/07/29 09:28:37;;;;;;;1.60;1.40;;;25.10;79.40;24.90;96113.00;;;;5090151;28;20645;-82
2023/07/29 09:31:06;;;;;;;1.90;1.73;;;25.20;78.80;25.10;96112.00;;;;5073917;28;20247;-82
2023/07/29 09:33:36;;;;;;;1.60;1.50;;;25.40;79.00;25.30;96119.00;;;;5076811;28;20205;-82
2023/07/29 09:36:10;;;;;;;1.50;1.40;;;25.50;78.90;25.40;96112.00;;;;5071315;28;20212;-82
2023/07/29 09:38:39;;;;;;;2.30;1.40;;;25.70;78.50;25.60;96111.00;;;;5069249;28;20196;-82
2023/07/29 09:41:07;;;;;;;2.43;2.00;;;25.90;77.40;25.80;96102.00;;;;5070761;28;20659;-83
2023/07/29 09:43:36;;;;;;;1.53;1.43;;;26.00;77.60;26.00;96114.00;;;;5072076;28;20192;-83
2023/07/29 09:46:06;;;;;;;1.53;1.43;;;26.30;77.10;26.10;96105.00;;;;5065125;28;20210;-82
2023/07/29 09:48:37;;;;;;;1.83;1.73;;;26.40;76.40;26.30;96104.00;;;;5073164;28;20196;-83
2023/07/29 09:51:12;;;;;;;1.90;1.60;;;26.60;76.20;26.40;96094.00;;;;5073362;28;20312;-83
2023/07/29 09:53:48;;;;;;;2.00;1.90;;;26.80;75.40;26.60;96094.00;;;;5074976;28;20218;-83
2023/07/29 09:56:16;;;;;;;2.80;1.90;;;26.90;75.80;26.70;96093.00;;;;5073373;28;20226;-83
2023/07/29 09:58:45;;;;;;;1.70;1.60;;;27.10;75.40;26.80;96095.00;;;;5056485;28;20283;-81
2023/07/29 10:01:13;;;;;;;2.20;1.50;;;27.20;74.00;26.90;96096.00;;;;5072617;28;20200;-80
2023/07/29 10:03:41;;;;;;;2.10;1.75;;;27.30;73.70;27.00;96094.00;;;;5069563;28;20193;-81
2023/07/29 10:06:09;;;;;;;2.22;2.00;;;27.40;73.30;27.10;96098.00;;;;5061622;28;20219;-81
2023/07/29 10:08:38;;;;;;;1.63;1.52;;;27.50;73.30;27.10;96096.00;;;;5073499;28;20187;-83
2023/07/29 10:11:09;;;;;;;2.25;1.58;;;27.60;71.70;27.10;96097.00;;;;5080763;28;20216;-84
2023/07/29 10:13:37;;;;;;;1.85;1.75;;;27.60;70.80;27.20;96092.00;;;;5079094;28;20214;-81
2023/07/29 10:16:06;;;;;;;1.70;1.60;;;27.60;71.20;27.20;96088.00;;;;5081126;28;20235;-83
2023/07/29 10:18:34;;;;;;;1.80;1.70;;;27.70;71.00;27.30;96082.00;;;;5074998;28;20238;-83
2023/07/29 10:21:03;;;;;;;1.67;1.58;;;27.70;72.20;27.40;96074.00;;;;5059663;28;20219;-83
2023/07/29 10:23:39;;;;;;;2.47;1.70;;;27.80;72.00;27.60;96065.00;;;;5072859;28;20200;-84
2023/07/29 10:26:12;;;;;;;1.83;1.73;;;27.90;72.90;27.70;96070.00;;;;5062984;28;20216;-83
2023/07/29 10:28:47;;;;;;;1.70;1.60;;;28.10;71.80;27.90;96071.00;;;;5072827;28;20713;-83
2023/07/29 10:31:17;;;;;;;1.65;1.55;;;28.30;71.80;28.10;96059.00;;;;5072073;28;20219;-83
2023/07/29 10:33:45;;;;;;;2.15;1.60;;;28.40;71.50;28.20;96057.00;;;;5072578;28;20196;-83
2023/07/29 10:36:13;;;;;;;1.60;1.50;;;28.60;69.20;28.30;96041.00;;;;5073292;28;20216;-83
2023/07/29 10:38:42;;;;;;;1.55;1.45;;;28.70;69.10;28.40;96038.00;;;;5070237;28;20279;-85
2023/07/29 10:41:10;;;;;;;1.63;1.52;;;28.80;69.90;28.60;96039.00;;;;5074826;28;20268;-83
2023/07/29 10:43:38;;;;;;;2.67;1.70;;;29.00;69.10;28.70;96041.00;;;;5074383;28;20334;-84
2023/07/29 10:46:20;;;;;;;1.65;1.55;;;29.10;68.20;28.80;96071.00;;;;5068445;28;20218;-84
2023/07/29 10:48:55;;;;;;;1.73;1.63;;;29.30;65.20;28.90;96096.00;;;;5076316;28;20680;-82
2023/07/29 10:51:30;;;;;;;1.02;1.02;;;29.30;64.80;28.70;96117.00;;;;5080624;28;20223;-85
2023/07/29 10:54:00;;;;;;;1.80;1.15;;;29.30;64.30;28.50;96118.00;;;;5069531;28;20196;-84
2023/07/29 10:56:33;;;;;;;0.85;0.85;;;29.20;62.80;28.30;96107.00;;;;5073542;28;20212;-84
2023/07/29 10:59:39;;;;;;;0.93;0.85;;;29.00;61.20;27.90;96109.00;;;;5070168;28;20210;-81